sensor_id;sensor_type;location;lat;lon;timestamp;P1;durP1;ratioP1;P2;durP2;ratioP2
59734;SDS011;64362;45.620;4.920;2023-02-24T00:00:03;8.90;;;6.85;;
59734;SDS011;64362;45.620;4.920;2023-02-24T00:02:51;7.63;;;6.45;;
59734;SDS011;64362;45.620;4.920;2023-02-24T00:05:17;11.25;;;7.03;;
59734;SDS011;64362;45.620;4.920;2023-02-24T00:07:43;9.90;;;6.85;;
59734;SDS011;64362;45.620;4.920;2023-02-24T00:10:09;7.18;;;6.40;;
59734;SDS011;64362;45.620;4.920;2023-02-24T00:12:35;10.32;;;6.65;;
59734;SDS011;64362;45.620;4.920;2023-02-24T00:15:01;8.27;;;6.70;;
59734;SDS011;64362;45.620;4.920;2023-02-24T00:17:26;7.70;;;6.60;;
59734;SDS011;64362;45.620;4.920;2023-02-24T00:19:54;9.40;;;6.85;;
59734;SDS011;64362;45.620;4.920;2023-02-24T00:22:20;9.40;;;7.13;;
59734;SDS011;64362;45.620;4.920;2023-02-24T00:24:46;9.60;;;7.32;;
59734;SDS011;64362;45.620;4.920;2023-02-24T00:27:12;8.43;;;6.47;;
59734;SDS011;64362;45.620;4.920;2023-02-24T00:29:37;8.05;;;6.53;;
59734;SDS011;64362;45.620;4.920;2023-02-24T00:32:04;10.35;;;6.90;;
59734;SDS011;64362;45.620;4.920;2023-02-24T00:34:33;9.15;;;6.72;;
59734;SDS011;64362;45.620;4.920;2023-02-24T00:37:00;8.23;;;7.07;;
59734;SDS011;64362;45.620;4.920;2023-02-24T00:39:26;8.25;;;6.90;;
59734;SDS011;64362;45.620;4.920;2023-02-24T00:41:55;7.93;;;6.10;;
59734;SDS011;64362;45.620;4.920;2023-02-24T00:44:44;7.85;;;6.85;;
59734;SDS011;64362;45.620;4.920;2023-02-24T00:47:13;9.43;;;6.38;;
59734;SDS011;64362;45.620;4.920;2023-02-24T00:49:41;8.93;;;6.53;;
59734;SDS011;64362;45.620;4.920;2023-02-24T00:52:07;9.18;;;6.38;;
59734;SDS011;64362;45.620;4.920;2023-02-24T00:54:34;8.38;;;6.53;;
59734;SDS011;64362;45.620;4.920;2023-02-24T00:57:00;8.82;;;6.32;;
59734;SDS011;64362;45.620;4.920;2023-02-24T00:59:26;9.07;;;6.43;;
59734;SDS011;64362;45.620;4.920;2023-02-24T01:01:53;8.65;;;6.22;;
59734;SDS011;64362;45.620;4.920;2023-02-24T01:04:19;7.72;;;6.45;;
59734;SDS011;64362;45.620;4.920;2023-02-24T01:06:49;9.25;;;6.95;;
59734;SDS011;64362;45.620;4.920;2023-02-24T01:09:17;6.72;;;5.95;;
59734;SDS011;64362;45.620;4.920;2023-02-24T01:11:44;8.90;;;6.53;;
59734;SDS011;64362;45.620;4.920;2023-02-24T01:14:31;8.20;;;6.30;;
59734;SDS011;64362;45.620;4.920;2023-02-24T01:16:57;7.65;;;6.28;;
59734;SDS011;64362;45.620;4.920;2023-02-24T01:19:27;8.98;;;6.75;;
59734;SDS011;64362;45.620;4.920;2023-02-24T01:21:59;8.38;;;6.50;;
59734;SDS011;64362;45.620;4.920;2023-02-24T01:24:27;6.80;;;6.13;;
59734;SDS011;64362;45.620;4.920;2023-02-24T01:26:53;7.72;;;6.35;;
59734;SDS011;64362;45.620;4.920;2023-02-24T01:29:19;7.65;;;6.47;;
59734;SDS011;64362;45.620;4.920;2023-02-24T01:31:46;7.45;;;6.28;;
59734;SDS011;64362;45.620;4.920;2023-02-24T01:34:16;7.97;;;6.80;;
59734;SDS011;64362;45.620;4.920;2023-02-24T01:36:41;7.32;;;6.60;;
59734;SDS011;64362;45.620;4.920;2023-02-24T01:39:07;8.88;;;6.28;;
59734;SDS011;64362;45.620;4.920;2023-02-24T01:41:36;7.55;;;6.18;;
59734;SDS011;64362;45.620;4.920;2023-02-24T01:44:05;9.25;;;6.28;;
59734;SDS011;64362;45.620;4.920;2023-02-24T01:46:47;7.25;;;5.80;;
59734;SDS011;64362;45.620;4.920;2023-02-24T01:54:51;7.10;;;5.60;;
59734;SDS011;64362;45.620;4.920;2023-02-24T01:57:20;10.27;;;6.60;;
59734;SDS011;64362;45.620;4.920;2023-02-24T01:59:49;6.78;;;5.93;;
59734;SDS011;64362;45.620;4.920;2023-02-24T02:02:17;7.72;;;5.72;;
59734;SDS011;64362;45.620;4.920;2023-02-24T02:04:48;8.63;;;6.95;;
59734;SDS011;64362;45.620;4.920;2023-02-24T02:07:16;7.57;;;6.00;;
59734;SDS011;64362;45.620;4.920;2023-02-24T02:09:43;7.40;;;6.38;;
59734;SDS011;64362;45.620;4.920;2023-02-24T02:12:11;6.88;;;5.70;;
59734;SDS011;64362;45.620;4.920;2023-02-24T02:14:38;7.53;;;5.97;;
59734;SDS011;64362;45.620;4.920;2023-02-24T02:28:25;8.27;;;6.00;;
59734;SDS011;64362;45.620;4.920;2023-02-24T02:36:29;7.63;;;6.60;;
59734;SDS011;64362;45.620;4.920;2023-02-24T02:39:45;7.50;;;6.20;;
59734;SDS011;64362;45.620;4.920;2023-02-24T02:41:53;8.55;;;6.78;;
59734;SDS011;64362;45.620;4.920;2023-02-24T02:44:29;8.48;;;6.15;;
59734;SDS011;64362;45.620;4.920;2023-02-24T02:49:39;8.02;;;5.85;;
59734;SDS011;64362;45.620;4.920;2023-02-24T02:52:17;7.68;;;6.25;;
59734;SDS011;64362;45.620;4.920;2023-02-24T02:54:55;6.82;;;5.85;;
59734;SDS011;64362;45.620;4.920;2023-02-24T02:57:33;6.82;;;5.82;;
59734;SDS011;64362;45.620;4.920;2023-02-24T03:00:03;9.30;;;6.13;;
59734;SDS011;64362;45.620;4.920;2023-02-24T03:02:39;7.18;;;5.60;;
59734;SDS011;64362;45.620;4.920;2023-02-24T03:05:08;8.43;;;6.03;;
59734;SDS011;64362;45.620;4.920;2023-02-24T03:07:37;6.68;;;5.75;;
59734;SDS011;64362;45.620;4.920;2023-02-24T03:10:07;6.65;;;5.75;;
59734;SDS011;64362;45.620;4.920;2023-02-24T03:12:36;7.63;;;6.15;;
59734;SDS011;64362;45.620;4.920;2023-02-24T03:15:05;7.72;;;5.63;;
59734;SDS011;64362;45.620;4.920;2023-02-24T03:17:36;9.35;;;5.78;;
59734;SDS011;64362;45.620;4.920;2023-02-24T03:20:09;6.80;;;5.53;;
59734;SDS011;64362;45.620;4.920;2023-02-24T03:22:49;7.70;;;5.90;;
59734;SDS011;64362;45.620;4.920;2023-02-24T03:25:27;7.43;;;6.40;;
59734;SDS011;64362;45.620;4.920;2023-02-24T03:28:05;10.10;;;5.90;;
59734;SDS011;64362;45.620;4.920;2023-02-24T03:30:57;6.07;;;5.47;;
59734;SDS011;64362;45.620;4.920;2023-02-24T03:33:31;7.72;;;6.28;;
59734;SDS011;64362;45.620;4.920;2023-02-24T03:36:01;7.05;;;5.70;;
59734;SDS011;64362;45.620;4.920;2023-02-24T03:38:29;6.90;;;5.68;;
59734;SDS011;64362;45.620;4.920;2023-02-24T03:40:56;7.05;;;6.03;;
59734;SDS011;64362;45.620;4.920;2023-02-24T03:43:27;8.10;;;5.90;;
59734;SDS011;64362;45.620;4.920;2023-02-24T03:45:55;7.57;;;5.88;;
59734;SDS011;64362;45.620;4.920;2023-02-24T03:48:22;6.35;;;5.43;;
59734;SDS011;64362;45.620;4.920;2023-02-24T03:50:49;6.45;;;5.32;;
59734;SDS011;64362;45.620;4.920;2023-02-24T04:02:00;7.18;;;5.10;;
59734;SDS011;64362;45.620;4.920;2023-02-24T04:04:48;6.38;;;5.32;;
59734;SDS011;64362;45.620;4.920;2023-02-24T04:08:06;6.32;;;5.38;;
59734;SDS011;64362;45.620;4.920;2023-02-24T04:12:55;6.93;;;5.30;;
59734;SDS011;64362;45.620;4.920;2023-02-24T04:15:29;7.22;;;5.15;;
59734;SDS011;64362;45.620;4.920;2023-02-24T04:18:01;7.10;;;5.25;;
59734;SDS011;64362;45.620;4.920;2023-02-24T04:20:36;7.13;;;5.68;;
59734;SDS011;64362;45.620;4.920;2023-02-24T04:23:05;7.85;;;5.63;;
59734;SDS011;64362;45.620;4.920;2023-02-24T04:25:34;8.95;;;5.43;;
59734;SDS011;64362;45.620;4.920;2023-02-24T04:28:00;5.82;;;5.22;;
59734;SDS011;64362;45.620;4.920;2023-02-24T04:30:29;8.05;;;5.35;;
59734;SDS011;64362;45.620;4.920;2023-02-24T04:32:56;7.75;;;5.05;;
59734;SDS011;64362;45.620;4.920;2023-02-24T04:35:23;6.32;;;5.20;;
59734;SDS011;64362;45.620;4.920;2023-02-24T04:37:54;7.03;;;5.22;;
59734;SDS011;64362;45.620;4.920;2023-02-24T04:40:21;6.85;;;5.30;;
59734;SDS011;64362;45.620;4.920;2023-02-24T04:42:50;6.55;;;4.95;;
59734;SDS011;64362;45.620;4.920;2023-02-24T04:45:21;5.97;;;5.35;;
59734;SDS011;64362;45.620;4.920;2023-02-24T04:47:48;7.40;;;4.93;;
59734;SDS011;64362;45.620;4.920;2023-02-24T04:50:18;7.72;;;5.18;;
59734;SDS011;64362;45.620;4.920;2023-02-24T04:52:50;6.00;;;4.70;;
59734;SDS011;64362;45.620;4.920;2023-02-24T04:55:17;6.72;;;5.15;;
59734;SDS011;64362;45.620;4.920;2023-02-24T04:57:43;5.90;;;5.18;;
59734;SDS011;64362;45.620;4.920;2023-02-24T05:00:11;6.47;;;4.93;;
59734;SDS011;64362;45.620;4.920;2023-02-24T05:02:50;6.72;;;5.25;;
59734;SDS011;64362;45.620;4.920;2023-02-24T05:05:17;5.40;;;4.90;;
59734;SDS011;64362;45.620;4.920;2023-02-24T05:08:23;6.47;;;5.40;;
59734;SDS011;64362;45.620;4.920;2023-02-24T05:10:42;6.88;;;5.47;;
59734;SDS011;64362;45.620;4.920;2023-02-24T05:13:15;5.68;;;4.75;;
59734;SDS011;64362;45.620;4.920;2023-02-24T05:15:52;6.90;;;4.68;;
59734;SDS011;64362;45.620;4.920;2023-02-24T05:18:19;6.22;;;4.82;;
59734;SDS011;64362;45.620;4.920;2023-02-24T05:20:46;4.88;;;4.30;;
59734;SDS011;64362;45.620;4.920;2023-02-24T05:23:41;7.15;;;5.00;;
59734;SDS011;64362;45.620;4.920;2023-02-24T05:26:09;6.20;;;5.05;;
59734;SDS011;64362;45.620;4.920;2023-02-24T05:28:41;6.43;;;4.93;;
59734;SDS011;64362;45.620;4.920;2023-02-24T05:31:08;7.00;;;4.63;;
59734;SDS011;64362;45.620;4.920;2023-02-24T05:33:42;6.38;;;4.93;;
59734;SDS011;64362;45.620;4.920;2023-02-24T05:36:13;5.68;;;4.88;;
59734;SDS011;64362;45.620;4.920;2023-02-24T05:38:44;6.35;;;4.82;;
59734;SDS011;64362;45.620;4.920;2023-02-24T05:41:20;8.90;;;5.60;;
59734;SDS011;64362;45.620;4.920;2023-02-24T05:43:47;7.47;;;5.40;;
59734;SDS011;64362;45.620;4.920;2023-02-24T05:46:25;7.93;;;4.75;;
59734;SDS011;64362;45.620;4.920;2023-02-24T05:48:53;5.07;;;4.45;;
59734;SDS011;64362;45.620;4.920;2023-02-24T05:51:23;5.80;;;4.78;;
59734;SDS011;64362;45.620;4.920;2023-02-24T05:53:52;5.57;;;4.18;;
59734;SDS011;64362;45.620;4.920;2023-02-24T05:56:20;5.05;;;4.38;;
59734;SDS011;64362;45.620;4.920;2023-02-24T05:58:47;6.05;;;4.32;;
59734;SDS011;64362;45.620;4.920;2023-02-24T06:01:14;5.90;;;4.50;;
59734;SDS011;64362;45.620;4.920;2023-02-24T06:03:42;5.28;;;4.28;;
59734;SDS011;64362;45.620;4.920;2023-02-24T06:06:14;6.65;;;4.07;;
59734;SDS011;64362;45.620;4.920;2023-02-24T06:08:41;7.43;;;4.32;;
59734;SDS011;64362;45.620;4.920;2023-02-24T06:11:13;5.05;;;4.20;;
59734;SDS011;64362;45.620;4.920;2023-02-24T06:13:43;6.35;;;4.50;;
59734;SDS011;64362;45.620;4.920;2023-02-24T06:16:15;7.03;;;4.20;;
59734;SDS011;64362;45.620;4.920;2023-02-24T06:18:42;6.93;;;4.43;;
59734;SDS011;64362;45.620;4.920;2023-02-24T06:21:11;6.00;;;3.63;;
59734;SDS011;64362;45.620;4.920;2023-02-24T06:23:39;4.93;;;4.10;;
59734;SDS011;64362;45.620;4.920;2023-02-24T06:26:06;5.68;;;3.88;;
59734;SDS011;64362;45.620;4.920;2023-02-24T06:28:40;6.45;;;4.68;;
59734;SDS011;64362;45.620;4.920;2023-02-24T06:31:07;6.45;;;4.50;;
59734;SDS011;64362;45.620;4.920;2023-02-24T06:33:35;5.85;;;4.25;;
59734;SDS011;64362;45.620;4.920;2023-02-24T06:36:01;6.43;;;4.55;;
59734;SDS011;64362;45.620;4.920;2023-02-24T06:38:31;5.93;;;4.45;;
59734;SDS011;64362;45.620;4.920;2023-02-24T06:40:57;8.35;;;5.10;;
59734;SDS011;64362;45.620;4.920;2023-02-24T06:43:38;6.88;;;4.90;;
59734;SDS011;64362;45.620;4.920;2023-02-24T06:46:05;6.45;;;5.07;;
59734;SDS011;64362;45.620;4.920;2023-02-24T06:48:31;7.35;;;5.05;;
59734;SDS011;64362;45.620;4.920;2023-02-24T06:51:01;7.55;;;4.80;;
59734;SDS011;64362;45.620;4.920;2023-02-24T06:53:29;9.00;;;4.93;;
59734;SDS011;64362;45.620;4.920;2023-02-24T06:55:55;7.85;;;4.93;;
59734;SDS011;64362;45.620;4.920;2023-02-24T06:58:21;7.32;;;5.10;;
59734;SDS011;64362;45.620;4.920;2023-02-24T07:00:48;7.55;;;5.43;;
59734;SDS011;64362;45.620;4.920;2023-02-24T07:03:23;10.07;;;5.57;;
59734;SDS011;64362;45.620;4.920;2023-02-24T07:06:03;11.75;;;5.55;;
59734;SDS011;64362;45.620;4.920;2023-02-24T07:08:45;9.43;;;5.50;;
59734;SDS011;64362;45.620;4.920;2023-02-24T07:11:11;9.90;;;6.05;;
59734;SDS011;64362;45.620;4.920;2023-02-24T07:13:38;9.07;;;6.50;;
59734;SDS011;64362;45.620;4.920;2023-02-24T07:16:05;10.60;;;6.00;;
59734;SDS011;64362;45.620;4.920;2023-02-24T07:18:34;7.43;;;5.35;;
59734;SDS011;64362;45.620;4.920;2023-02-24T07:21:01;13.35;;;5.75;;
59734;SDS011;64362;45.620;4.920;2023-02-24T07:23:39;11.80;;;6.53;;
59734;SDS011;64362;45.620;4.920;2023-02-24T07:26:12;10.85;;;6.45;;
59734;SDS011;64362;45.620;4.920;2023-02-24T07:28:40;10.75;;;7.03;;
59734;SDS011;64362;45.620;4.920;2023-02-24T07:31:07;10.73;;;6.85;;
59734;SDS011;64362;45.620;4.920;2023-02-24T07:33:36;10.30;;;6.80;;
59734;SDS011;64362;45.620;4.920;2023-02-24T07:36:04;11.23;;;7.40;;
59734;SDS011;64362;45.620;4.920;2023-02-24T07:38:33;10.10;;;7.47;;
59734;SDS011;64362;45.620;4.920;2023-02-24T07:41:00;10.38;;;7.88;;
59734;SDS011;64362;45.620;4.920;2023-02-24T07:43:26;10.50;;;7.13;;
59734;SDS011;64362;45.620;4.920;2023-02-24T07:45:52;10.02;;;7.25;;
59734;SDS011;64362;45.620;4.920;2023-02-24T07:48:17;11.63;;;7.97;;
59734;SDS011;64362;45.620;4.920;2023-02-24T07:50:43;10.13;;;7.90;;
59734;SDS011;64362;45.620;4.920;2023-02-24T07:53:08;13.30;;;9.13;;
59734;SDS011;64362;45.620;4.920;2023-02-24T07:55:34;10.65;;;8.13;;
59734;SDS011;64362;45.620;4.920;2023-02-24T07:58:00;11.10;;;8.43;;
59734;SDS011;64362;45.620;4.920;2023-02-24T08:00:27;11.90;;;8.13;;
59734;SDS011;64362;45.620;4.920;2023-02-24T08:02:55;13.10;;;8.55;;
59734;SDS011;64362;45.620;4.920;2023-02-24T08:05:21;12.57;;;9.13;;
59734;SDS011;64362;45.620;4.920;2023-02-24T08:07:48;11.90;;;8.25;;
59734;SDS011;64362;45.620;4.920;2023-02-24T08:10:18;11.50;;;8.50;;
59734;SDS011;64362;45.620;4.920;2023-02-24T08:12:54;11.85;;;8.85;;
59734;SDS011;64362;45.620;4.920;2023-02-24T08:15:21;12.02;;;9.18;;
59734;SDS011;64362;45.620;4.920;2023-02-24T08:17:51;13.50;;;9.30;;
59734;SDS011;64362;45.620;4.920;2023-02-24T08:20:23;15.95;;;9.85;;
59734;SDS011;64362;45.620;4.920;2023-02-24T08:22:50;12.38;;;9.50;;
59734;SDS011;64362;45.620;4.920;2023-02-24T08:25:21;12.90;;;9.85;;
59734;SDS011;64362;45.620;4.920;2023-02-24T08:27:59;13.35;;;10.20;;
59734;SDS011;64362;45.620;4.920;2023-02-24T08:30:30;13.85;;;9.65;;
59734;SDS011;64362;45.620;4.920;2023-02-24T08:33:02;13.63;;;9.80;;
59734;SDS011;64362;45.620;4.920;2023-02-24T08:35:29;12.02;;;9.60;;
59734;SDS011;64362;45.620;4.920;2023-02-24T08:37:57;13.77;;;9.60;;
59734;SDS011;64362;45.620;4.920;2023-02-24T08:40:39;13.27;;;10.05;;
59734;SDS011;64362;45.620;4.920;2023-02-24T08:45:45;12.50;;;8.95;;
59734;SDS011;64362;45.620;4.920;2023-02-24T08:48:17;14.07;;;9.60;;
59734;SDS011;64362;45.620;4.920;2023-02-24T08:50:54;13.75;;;10.57;;
59734;SDS011;64362;45.620;4.920;2023-02-24T08:53:21;14.13;;;10.25;;
59734;SDS011;64362;45.620;4.920;2023-02-24T08:55:47;13.18;;;9.65;;
59734;SDS011;64362;45.620;4.920;2023-02-24T08:58:19;14.48;;;10.32;;
59734;SDS011;64362;45.620;4.920;2023-02-24T09:00:57;14.15;;;9.95;;
59734;SDS011;64362;45.620;4.920;2023-02-24T09:03:24;12.80;;;9.95;;
59734;SDS011;64362;45.620;4.920;2023-02-24T09:05:58;13.25;;;10.38;;
59734;SDS011;64362;45.620;4.920;2023-02-24T09:08:32;13.38;;;9.80;;
59734;SDS011;64362;45.620;4.920;2023-02-24T09:11:35;13.18;;;9.65;;
59734;SDS011;64362;45.620;4.920;2023-02-24T09:13:54;12.35;;;9.48;;
59734;SDS011;64362;45.620;4.920;2023-02-24T09:16:22;12.40;;;9.75;;
59734;SDS011;64362;45.620;4.920;2023-02-24T09:18:48;13.82;;;10.10;;
59734;SDS011;64362;45.620;4.920;2023-02-24T09:21:33;13.32;;;9.45;;
59734;SDS011;64362;45.620;4.920;2023-02-24T09:24:17;12.80;;;9.05;;
59734;SDS011;64362;45.620;4.920;2023-02-24T09:26:54;14.15;;;10.00;;
59734;SDS011;64362;45.620;4.920;2023-02-24T09:29:26;12.30;;;8.82;;
59734;SDS011;64362;45.620;4.920;2023-02-24T09:32:02;11.23;;;8.70;;
59734;SDS011;64362;45.620;4.920;2023-02-24T09:34:35;12.80;;;8.65;;
59734;SDS011;64362;45.620;4.920;2023-02-24T09:37:03;12.15;;;9.55;;
59734;SDS011;64362;45.620;4.920;2023-02-24T09:39:30;15.80;;;10.40;;
59734;SDS011;64362;45.620;4.920;2023-02-24T09:42:15;15.23;;;9.13;;
59734;SDS011;64362;45.620;4.920;2023-02-24T09:44:45;13.43;;;9.07;;
59734;SDS011;64362;45.620;4.920;2023-02-24T09:47:32;12.68;;;8.88;;
59734;SDS011;64362;45.620;4.920;2023-02-24T09:52:38;10.35;;;8.70;;
59734;SDS011;64362;45.620;4.920;2023-02-24T10:01:15;14.48;;;9.60;;
59734;SDS011;64362;45.620;4.920;2023-02-24T10:06:30;15.10;;;10.55;;
59734;SDS011;64362;45.620;4.920;2023-02-24T10:11:45;14.07;;;9.82;;
59734;SDS011;64362;45.620;4.920;2023-02-24T10:16:54;12.75;;;9.88;;
59734;SDS011;64362;45.620;4.920;2023-02-24T10:19:39;10.68;;;8.73;;
59734;SDS011;64362;45.620;4.920;2023-02-24T10:22:19;11.13;;;9.25;;
59734;SDS011;64362;45.620;4.920;2023-02-24T10:30:28;12.20;;;8.45;;
59734;SDS011;64362;45.620;4.920;2023-02-24T10:33:10;11.68;;;8.70;;
59734;SDS011;64362;45.620;4.920;2023-02-24T10:35:39;10.45;;;8.43;;
59734;SDS011;64362;45.620;4.920;2023-02-24T10:38:04;10.55;;;8.23;;
59734;SDS011;64362;45.620;4.920;2023-02-24T10:40:31;10.68;;;8.18;;
59734;SDS011;64362;45.620;4.920;2023-02-24T10:43:14;9.30;;;7.47;;
59734;SDS011;64362;45.620;4.920;2023-02-24T10:45:43;11.80;;;8.85;;
59734;SDS011;64362;45.620;4.920;2023-02-24T10:48:14;9.38;;;7.65;;
59734;SDS011;64362;45.620;4.920;2023-02-24T10:50:50;11.90;;;8.32;;
59734;SDS011;64362;45.620;4.920;2023-02-24T10:53:19;8.63;;;7.40;;
59734;SDS011;64362;45.620;4.920;2023-02-24T10:56:03;11.63;;;8.38;;
59734;SDS011;64362;45.620;4.920;2023-02-24T10:59:07;12.52;;;8.30;;
59734;SDS011;64362;45.620;4.920;2023-02-24T11:01:54;11.30;;;8.55;;
59734;SDS011;64362;45.620;4.920;2023-02-24T11:07:12;11.45;;;7.88;;
59734;SDS011;64362;45.620;4.920;2023-02-24T11:09:49;11.13;;;8.02;;
59734;SDS011;64362;45.620;4.920;2023-02-24T11:12:35;9.45;;;7.82;;
59734;SDS011;64362;45.620;4.920;2023-02-24T11:15:46;12.15;;;8.20;;
59734;SDS011;64362;45.620;4.920;2023-02-24T11:18:33;11.80;;;8.57;;
59734;SDS011;64362;45.620;4.920;2023-02-24T11:21:06;11.32;;;7.35;;
59734;SDS011;64362;45.620;4.920;2023-02-24T11:23:36;10.93;;;8.18;;
59734;SDS011;64362;45.620;4.920;2023-02-24T11:26:14;14.20;;;9.00;;
59734;SDS011;64362;45.620;4.920;2023-02-24T11:31:41;14.13;;;10.13;;
59734;SDS011;64362;45.620;4.920;2023-02-24T11:39:44;15.80;;;10.57;;
59734;SDS011;64362;45.620;4.920;2023-02-24T11:45:24;18.63;;;10.32;;
59734;SDS011;64362;45.620;4.920;2023-02-24T11:47:58;17.40;;;11.02;;
59734;SDS011;64362;45.620;4.920;2023-02-24T11:50:29;19.00;;;10.80;;
59734;SDS011;64362;45.620;4.920;2023-02-24T11:53:03;25.80;;;12.45;;
59734;SDS011;64362;45.620;4.920;2023-02-24T11:55:36;21.98;;;10.93;;
59734;SDS011;64362;45.620;4.920;2023-02-24T11:58:11;20.42;;;10.32;;
59734;SDS011;64362;45.620;4.920;2023-02-24T12:00:40;23.25;;;11.07;;
59734;SDS011;64362;45.620;4.920;2023-02-24T12:03:29;18.00;;;9.88;;
59734;SDS011;64362;45.620;4.920;2023-02-24T12:06:15;17.65;;;9.32;;
59734;SDS011;64362;45.620;4.920;2023-02-24T12:08:44;18.92;;;10.23;;
59734;SDS011;64362;45.620;4.920;2023-02-24T12:11:34;16.95;;;9.88;;
59734;SDS011;64362;45.620;4.920;2023-02-24T12:16:53;14.48;;;7.95;;
59734;SDS011;64362;45.620;4.920;2023-02-24T12:22:55;14.23;;;7.60;;
59734;SDS011;64362;45.620;4.920;2023-02-24T12:25:47;13.82;;;7.90;;
59734;SDS011;64362;45.620;4.920;2023-02-24T12:39:32;12.73;;;7.30;;
59734;SDS011;64362;45.620;4.920;2023-02-24T12:41:42;12.25;;;6.38;;
59734;SDS011;64362;45.620;4.920;2023-02-24T12:49:39;12.63;;;6.80;;
59734;SDS011;64362;45.620;4.920;2023-02-24T12:55:16;10.02;;;5.93;;
59734;SDS011;64362;45.620;4.920;2023-02-24T12:58:01;9.35;;;5.53;;
59734;SDS011;64362;45.620;4.920;2023-02-24T13:06:20;12.10;;;5.78;;
59734;SDS011;64362;45.620;4.920;2023-02-24T13:08:57;11.10;;;5.70;;
59734;SDS011;64362;45.620;4.920;2023-02-24T13:11:36;10.45;;;5.57;;
59734;SDS011;64362;45.620;4.920;2023-02-24T13:14:16;11.98;;;6.28;;
59734;SDS011;64362;45.620;4.920;2023-02-24T13:19:35;11.90;;;5.45;;
59734;SDS011;64362;45.620;4.920;2023-02-24T13:22:05;9.35;;;5.32;;
59734;SDS011;64362;45.620;4.920;2023-02-24T13:27:23;9.93;;;5.88;;
59734;SDS011;64362;45.620;4.920;2023-02-24T13:29:50;12.55;;;5.45;;
59734;SDS011;64362;45.620;4.920;2023-02-24T13:32:23;10.10;;;5.47;;
59734;SDS011;64362;45.620;4.920;2023-02-24T13:34:53;12.07;;;5.05;;
59734;SDS011;64362;45.620;4.920;2023-02-24T13:37:29;8.07;;;5.00;;
59734;SDS011;64362;45.620;4.920;2023-02-24T13:39:59;12.25;;;5.45;;
59734;SDS011;64362;45.620;4.920;2023-02-24T13:42:26;10.63;;;5.35;;
59734;SDS011;64362;45.620;4.920;2023-02-24T13:44:54;10.90;;;5.40;;
59734;SDS011;64362;45.620;4.920;2023-02-24T13:55:17;10.50;;;5.47;;
59734;SDS011;64362;45.620;4.920;2023-02-24T14:00:50;9.60;;;5.20;;
59734;SDS011;64362;45.620;4.920;2023-02-24T14:03:20;10.02;;;5.10;;
59734;SDS011;64362;45.620;4.920;2023-02-24T14:05:49;10.32;;;5.45;;
59734;SDS011;64362;45.620;4.920;2023-02-24T14:08:19;7.70;;;4.80;;
59734;SDS011;64362;45.620;4.920;2023-02-24T14:10:50;11.38;;;4.88;;
59734;SDS011;64362;45.620;4.920;2023-02-24T14:13:21;10.73;;;4.32;;
59734;SDS011;64362;45.620;4.920;2023-02-24T14:15:54;9.45;;;4.10;;
59734;SDS011;64362;45.620;4.920;2023-02-24T14:18:21;6.80;;;4.32;;
59734;SDS011;64362;45.620;4.920;2023-02-24T14:20:51;7.82;;;4.28;;
59734;SDS011;64362;45.620;4.920;2023-02-24T14:23:22;8.35;;;4.00;;
59734;SDS011;64362;45.620;4.920;2023-02-24T14:25:59;8.68;;;3.97;;
59734;SDS011;64362;45.620;4.920;2023-02-24T14:28:30;9.80;;;3.65;;
59734;SDS011;64362;45.620;4.920;2023-02-24T14:30:59;7.47;;;3.88;;
59734;SDS011;64362;45.620;4.920;2023-02-24T14:33:45;7.07;;;4.00;;
59734;SDS011;64362;45.620;4.920;2023-02-24T14:36:19;7.10;;;3.58;;
59734;SDS011;64362;45.620;4.920;2023-02-24T14:38:56;7.70;;;3.60;;
59734;SDS011;64362;45.620;4.920;2023-02-24T14:41:25;7.70;;;4.07;;
59734;SDS011;64362;45.620;4.920;2023-02-24T14:43:52;7.43;;;3.40;;
59734;SDS011;64362;45.620;4.920;2023-02-24T14:46:18;4.82;;;2.97;;
59734;SDS011;64362;45.620;4.920;2023-02-24T14:48:43;6.03;;;3.45;;
59734;SDS011;64362;45.620;4.920;2023-02-24T14:51:11;5.07;;;3.13;;
59734;SDS011;64362;45.620;4.920;2023-02-24T14:53:50;7.05;;;3.05;;
59734;SDS011;64362;45.620;4.920;2023-02-24T14:56:18;7.15;;;3.22;;
59734;SDS011;64362;45.620;4.920;2023-02-24T14:58:47;4.38;;;2.55;;
59734;SDS011;64362;45.620;4.920;2023-02-24T15:01:26;4.03;;;2.67;;
59734;SDS011;64362;45.620;4.920;2023-02-24T15:03:59;5.80;;;2.95;;
59734;SDS011;64362;45.620;4.920;2023-02-24T15:06:34;3.75;;;2.20;;
59734;SDS011;64362;45.620;4.920;2023-02-24T15:09:06;6.05;;;2.88;;
59734;SDS011;64362;45.620;4.920;2023-02-24T15:11:37;4.38;;;2.53;;
59734;SDS011;64362;45.620;4.920;2023-02-24T15:14:03;4.00;;;2.05;;
59734;SDS011;64362;45.620;4.920;2023-02-24T15:19:00;4.38;;;2.70;;
59734;SDS011;64362;45.620;4.920;2023-02-24T15:21:33;4.55;;;2.53;;
59734;SDS011;64362;45.620;4.920;2023-02-24T15:24:15;4.25;;;2.20;;
59734;SDS011;64362;45.620;4.920;2023-02-24T15:26:49;5.18;;;2.13;;
59734;SDS011;64362;45.620;4.920;2023-02-24T15:29:43;4.47;;;2.10;;
59734;SDS011;64362;45.620;4.920;2023-02-24T15:32:14;4.28;;;2.10;;
59734;SDS011;64362;45.620;4.920;2023-02-24T15:34:43;4.18;;;2.00;;
59734;SDS011;64362;45.620;4.920;2023-02-24T15:37:23;3.72;;;2.08;;
59734;SDS011;64362;45.620;4.920;2023-02-24T15:39:58;3.80;;;2.13;;
59734;SDS011;64362;45.620;4.920;2023-02-24T15:42:32;4.65;;;1.80;;
59734;SDS011;64362;45.620;4.920;2023-02-24T15:45:06;3.42;;;1.77;;
59734;SDS011;64362;45.620;4.920;2023-02-24T15:47:46;3.60;;;2.00;;
59734;SDS011;64362;45.620;4.920;2023-02-24T15:50:17;4.07;;;1.80;;
59734;SDS011;64362;45.620;4.920;2023-02-24T15:52:43;3.13;;;1.90;;
59734;SDS011;64362;45.620;4.920;2023-02-24T15:55:18;4.50;;;2.15;;
59734;SDS011;64362;45.620;4.920;2023-02-24T16:00:13;5.03;;;2.10;;
59734;SDS011;64362;45.620;4.920;2023-02-24T16:02:41;6.75;;;2.13;;
59734;SDS011;64362;45.620;4.920;2023-02-24T16:05:13;7.50;;;1.92;;
59734;SDS011;64362;45.620;4.920;2023-02-24T16:07:38;6.93;;;2.40;;
59734;SDS011;64362;45.620;4.920;2023-02-24T16:10:06;5.38;;;1.98;;
59734;SDS011;64362;45.620;4.920;2023-02-24T16:12:38;4.55;;;2.10;;
59734;SDS011;64362;45.620;4.920;2023-02-24T16:15:31;6.53;;;2.08;;
59734;SDS011;64362;45.620;4.920;2023-02-24T16:18:01;8.23;;;2.10;;
59734;SDS011;64362;45.620;4.920;2023-02-24T16:20:28;5.60;;;2.15;;
59734;SDS011;64362;45.620;4.920;2023-02-24T16:23:00;3.88;;;1.85;;
59734;SDS011;64362;45.620;4.920;2023-02-24T16:25:28;6.28;;;2.10;;
59734;SDS011;64362;45.620;4.920;2023-02-24T16:27:55;4.95;;;1.70;;
59734;SDS011;64362;45.620;4.920;2023-02-24T16:30:24;5.40;;;1.52;;
59734;SDS011;64362;45.620;4.920;2023-02-24T16:32:54;5.15;;;1.90;;
59734;SDS011;64362;45.620;4.920;2023-02-24T16:35:21;4.97;;;1.80;;
59734;SDS011;64362;45.620;4.920;2023-02-24T16:37:46;4.90;;;1.77;;
59734;SDS011;64362;45.620;4.920;2023-02-24T16:40:17;4.80;;;1.52;;
59734;SDS011;64362;45.620;4.920;2023-02-24T16:42:51;4.28;;;1.83;;
59734;SDS011;64362;45.620;4.920;2023-02-24T16:45:17;5.15;;;1.83;;
59734;SDS011;64362;45.620;4.920;2023-02-24T16:47:43;6.05;;;1.73;;
59734;SDS011;64362;45.620;4.920;2023-02-24T16:50:17;4.90;;;1.75;;
59734;SDS011;64362;45.620;4.920;2023-02-24T16:52:45;5.30;;;1.35;;
59734;SDS011;64362;45.620;4.920;2023-02-24T16:55:11;5.47;;;1.70;;
59734;SDS011;64362;45.620;4.920;2023-02-24T16:57:40;4.10;;;1.58;;
59734;SDS011;64362;45.620;4.920;2023-02-24T17:00:06;5.43;;;1.63;;
59734;SDS011;64362;45.620;4.920;2023-02-24T17:02:32;2.83;;;1.63;;
59734;SDS011;64362;45.620;4.920;2023-02-24T17:04:58;5.25;;;1.73;;
59734;SDS011;64362;45.620;4.920;2023-02-24T17:07:23;4.75;;;1.52;;
59734;SDS011;64362;45.620;4.920;2023-02-24T17:09:49;4.93;;;1.45;;
59734;SDS011;64362;45.620;4.920;2023-02-24T17:12:16;2.75;;;1.58;;
59734;SDS011;64362;45.620;4.920;2023-02-24T17:14:44;5.35;;;1.60;;
59734;SDS011;64362;45.620;4.920;2023-02-24T17:17:09;3.30;;;1.55;;